Logo

Informe meteorológico de la semana en curso

  • Compartir en Google Plus
  • Compartir en Twitter
  • Compartir en Facebook
Nº de accesos al conjunto de datos: 182

Previsualización

API de datos Código HTML

_id codest paraje municipio periodo NDias tmin tmax tmed hrmin hrmax hrmed prec radmax radmed vvmed vvmax eto_pm_fao
1 AL31 Lebor Totana 10/08/2020 - 16/08/2020 2 19.2 35.7 27.2 23.0 79.1 55.4 0.0 1082 264.2 1.8 7.0 11.7
2 AL41 La Calavera Alhama 10/08/2020 - 16/08/2020 1 18.6 37.4 27.8 16.9 71.3 43.8 0.0 972 299.5 2.0 8.8 7.2
3 AL52 Los Palomos Librilla 10/08/2020 - 16/08/2020 2 19.9 36.5 27.4 24.4 86.6 61.1 0.2 1155 275.0 1.6 9.9 11.8
4 AL62 Cañada Gallego Mazarrón 10/08/2020 - 16/08/2020 1 24.0 34.3 29.2 24.5 71.1 45.8 0.0 1077 296.3 1.7 6.4 6.5
5 CA12 La Palma Cartagena 10/08/2020 - 16/08/2020 1 20.8 32.2 27.1 31.1 81.3 62.6 0.0 1081 292.5 1.7 7.5 5.9
6 CA21 Corvera Murcia 10/08/2020 - 16/08/2020 2 22.3 34.3 27.2 26.1 93.2 58.4 1.6 1193 272.8 2.0 6.0 11.7
7 CA42 Balsapintada Fuente Alamo 10/08/2020 - 16/08/2020 2 19.0 34.8 27.2 27.0 99.9 63.5 1.8 1133 258.4 1.0 5.4 9.8
8 CA52 La Aljorra Cartagena 10/08/2020 - 16/08/2020 2 22.0 33.6 27.6 28.9 92.9 66.5 1.0 1271 256.7 2.9 8.3 11.8
9 CA73 Los Belones Cartagena 10/08/2020 - 16/08/2020 1 24.2 30.3 27.0 61.3 89.1 78.2 0.0 1014 278.0 2.1 6.2 5.2
10 CA91 Campillo Abajo Fuente Alamo 10/08/2020 - 16/08/2020 1 19.6 34.8 27.2 23.1 85.6 55.3 0.0 1092 294.0 0.8 6.0 5.3
11 CI22 Estación de Blanca Blanca 10/08/2020 - 16/08/2020 1 19.3 36.1 27.2 16.4 65.8 41.0 0.0 1259 274.7 0.9 5.9 5.3
12 CI32 Estación Ulea Ulea 10/08/2020 - 16/08/2020 2 19.7 34.8 26.9 21.1 83.8 51.8 0.0 1299 267.5 2.3 9.2 12.8
13 CI42 La Carrichosa Cieza 10/08/2020 - 16/08/2020 1 17.6 36.5 27.1 21.6 79.5 47.9 0.0 1205 241.6 1.1 6.4 5.2
14 CI52 Rotas Calasparra 10/08/2020 - 16/08/2020 1 18.1 37.5 27.7 14.1 57.1 36.0 0.0 1124 270.2 1.1 5.6 5.6
15 CI71 Llano de las olivericas Calasparra 10/08/2020 - 16/08/2020 1 18.6 37.1 27.2 20.4 64.0 43.6 0.0 1083 242.2 0.9 5.1 5.1
16 CR12 Barranda Caravaca 10/08/2020 - 16/08/2020 1 15.4 33.0 24.4 14.2 54.5 33.8 0.0 1014 275.7 1.2 6.8 5.5
17 CR32 El Chaparral Cehegin 10/08/2020 - 16/08/2020 1 15.3 35.8 26.0 16.5 72.0 41.9 0.0 1071 265.2 0.9 7.1 5.1
18 CR42 Venta Ulea Moratalla 10/08/2020 - 16/08/2020 2 18.0 36.8 26.4 17.9 73.6 46.3 0.0 1190 271.3 2.1 7.7 13.1
19 CR52 La Torrecica Cehegin 10/08/2020 - 16/08/2020 1 17.4 36.3 26.9 15.0 67.5 36.7 0.0 1053 279.9 0.7 4.6 5.0
20 JU12 Cañada del Judio Jumilla 10/08/2020 - 16/08/2020 1 18.2 36.3 27.2 13.7 70.1 43.0 0.0 1129 258.6 1.3 7.3 5.7
21 JU42 Las Moratillas Yecla 10/08/2020 - 16/08/2020 2 15.7 34.8 25.0 16.2 93.9 57.7 0.0 1122 225.5 1.3 6.4 9.9
22 JU62 Miraflores Jumilla 10/08/2020 - 16/08/2020 1 17.4 36.7 27.2 15.5 84.4 45.4 0.0 1248 262.2 1.0 5.7 5.4
23 JU71 Las Encebras Jumilla 10/08/2020 - 16/08/2020 1 18.3 36.2 27.6 13.4 70.6 36.9 0.0 1190 261.8 1.6 7.2 6.1
24 JU81 Roman Jumilla 10/08/2020 - 16/08/2020 1 18.4 37.0 27.5 13.4 61.3 35.9 0.0 1144 255.1 1.0 5.2 5.3
25 LO11 Purias Lorca 10/08/2020 - 16/08/2020 2 20.4 37.2 27.8 19.9 85.8 52.2 0.2 1061 258.5 2.2 7.2 12.5
26 LO21 Pozohiguera Lorca 10/08/2020 - 16/08/2020 2 20.5 34.7 27.4 23.7 99.5 56.4 0.1 1106 257.7 2.6 8.7 12.6
27 LO31 La Pilica Aguilas 10/08/2020 - 16/08/2020 2 23.2 32.7 28.7 29.3 87.6 55.0 0.6 1096 252.4 2.0 7.7 11.5
28 LO41 La Paca Lorca 10/08/2020 - 16/08/2020 2 16.9 35.1 25.8 16.6 79.3 43.1 0.0 1261 289.3 2.0 7.4 12.8
29 LO51 Tebar Aguilas 10/08/2020 - 16/08/2020 1 24.1 34.1 28.9 23.7 68.9 39.8 0.0 1009 294.5 2.5 9.2 7.2
30 LO61 El Esparragal Puerto Lumbreras 10/08/2020 - 16/08/2020 1 19.8 37.2 28.4 14.5 68.5 36.6 0.0 962 290.6 1.9 8.4 7.0
31 ML12 Yechar Mula 10/08/2020 - 16/08/2020 1 16.8 37.1 27.0 21.8 84.1 51.7 0.0 None None 0.7 3.0 5.3
32 ML21 Mula Mula 10/08/2020 - 16/08/2020 1 18.7 36.0 27.2 17.4 72.8 43.4 0.0 1155 297.0 1.4 5.9 6.2
33 MO12 Pilica Torres de Cotillas 10/08/2020 - 16/08/2020 2 20.7 35.9 27.5 23.4 91.9 61.2 0.0 1267 279.4 1.7 6.9 11.7
34 MO22 Campotejar Molina Segura 10/08/2020 - 16/08/2020 1 19.1 35.4 27.2 19.3 75.8 46.3 0.0 1241 269.3 1.4 6.5 5.8
35 MO31 El Llano Molina Segura 10/08/2020 - 16/08/2020 1 19.4 36.4 28.0 19.1 84.4 52.5 0.0 1221 271.9 0.8 7.1 5.2
36 MO41 La Jaira Abanilla 10/08/2020 - 16/08/2020 1 19.0 34.7 26.7 20.1 77.7 46.0 0.0 1161 260.4 1.1 7.4 5.3
37 MO51 Charco Taray Fortuna 10/08/2020 - 16/08/2020 2 21.2 34.8 27.3 22.7 88.8 52.1 0.4 1245 259.8 1.3 7.1 10.7
38 MO62 Loma del Aire Ojós 10/08/2020 - 16/08/2020 1 24.2 36.6 29.5 22.3 82.3 48.7 0.0 1224 219.7 1.3 5.6 5.3
39 MU21 Los Alamos Beniel 10/08/2020 - 16/08/2020 2 19.7 34.8 27.3 27.2 93.2 66.6 2.4 1299 308.0 2.0 7.5 12.5
40 MU31 La Vereda Murcia 10/08/2020 - 16/08/2020 1 20.8 36.4 28.0 24.5 81.6 52.9 0.0 1111 274.8 1.5 7.1 6.1
41 MU52 Cabezo Plata Murcia 10/08/2020 - 16/08/2020 1 23.7 38.1 31.4 29.9 99.8 69.4 0.0 1121 296.3 1.9 8.3 6.7
42 MU62 La Alberca Murcia 10/08/2020 - 16/08/2020 1 22.2 37.2 29.1 19.5 69.6 46.6 0.0 1214 295.7 1.0 6.0 5.9
43 TP22 Santiago de la Ribera San Javier 10/08/2020 - 16/08/2020 1 23.4 30.4 27.1 35.4 83.1 67.4 0.0 1015 289.7 2.0 6.6 5.9
44 TP42 Torre Blanca Torre Pacheco 10/08/2020 - 16/08/2020 1 23.2 33.0 28.1 32.0 90.1 67.8 0.0 985 279.5 2.5 9.0 6.3
45 TP52 El Mirador San Javier 10/08/2020 - 16/08/2020 1 22.5 32.2 27.2 28.5 91.7 64.7 0.0 1156 305.4 1.9 6.8 6.2
46 TP91 Torre Pacheco Torre Pacheco 10/08/2020 - 16/08/2020 1 20.6 33.3 27.4 31.0 99.9 69.9 0.0 1065 294.8 1.4 7.8 5.7

Propiedades del conjunto de datos

Título
Informe meteorológico de la semana en curso
Descripción

Información sobre los datos meteorológicos medios de la semana en curso. Se incluye la información por cada una de las estaciones meteorológicas de la red SIAM gestionada por el Instituto Murciano de Investigación y Desarrollo Agrario y Alimentario (IMIDA). Los datos recogidos por las estaciones son validados al día siguiente de la toma de datos.

Categoría
Palabra clave / etiqueta
Publicador
Cobertura geográfica
Región de Murcia
Idioma
Español
Fecha de primera publicación
15/05/2018
Fecha de última modificación
12/08/2020
Licencia
Frecuencia de actualización
Diaria (cada día)
Diccionario de datos
La información se estructura en las siguientes columnas: Código de estación meteorológica, Nombre del paraje donde está ubicada la estación, Municipio donde está ubicada la estación, Fechas de toma de datos, número de días del ejercicio, Temperatura mínima (ºC), Temperatura máxima (ºC), Temperatura media (ºC), Humedad Relativa mínima (%), Humedad Relativa máxima (%),Humedad Relativa media (%),Precipitación (mm), radiación máxima (w/m2), radiación media (w/m2), Velocidad del Viento media (m/seg), Velocidad del Viento máxima (m/seg), Evapotranspiración máxima de un día (mm).
comments powered by Disqus